sensor_id;sensor_type;location;lat;lon;timestamp;temperature;humidity
41142;SHT31;63666;52.284;20.890;2023-02-04T00:00:34;20.18;35.40
41142;SHT31;63666;52.284;20.890;2023-02-04T00:03:28;20.19;35.79
41142;SHT31;63666;52.284;20.890;2023-02-04T00:06:00;20.19;35.83
41142;SHT31;63666;52.284;20.890;2023-02-04T00:08:31;20.17;35.93
41142;SHT31;63666;52.284;20.890;2023-02-04T00:11:05;20.15;36.01
41142;SHT31;63666;52.284;20.890;2023-02-04T00:13:39;20.11;36.06
41142;SHT31;63666;52.284;20.890;2023-02-04T00:16:10;20.08;36.16
41142;SHT31;63666;52.284;20.890;2023-02-04T00:18:40;20.07;36.13
41142;SHT31;63666;52.284;20.890;2023-02-04T00:21:13;20.05;36.21
41142;SHT31;63666;52.284;20.890;2023-02-04T00:23:42;20.04;36.22
41142;SHT31;63666;52.284;20.890;2023-02-04T00:26:12;20.04;36.28
41142;SHT31;63666;52.284;20.890;2023-02-04T00:28:41;19.99;36.38
41142;SHT31;63666;52.284;20.890;2023-02-04T00:31:13;19.97;36.41
41142;SHT31;63666;52.284;20.890;2023-02-04T00:33:43;19.98;36.50
41142;SHT31;63666;52.284;20.890;2023-02-04T00:36:16;19.94;36.51
41142;SHT31;63666;52.284;20.890;2023-02-04T00:38:49;19.92;36.52
41142;SHT31;63666;52.284;20.890;2023-02-04T00:41:21;19.91;36.48
41142;SHT31;63666;52.284;20.890;2023-02-04T00:43:51;19.90;36.47
41142;SHT31;63666;52.284;20.890;2023-02-04T00:46:26;19.86;36.45
41142;SHT31;63666;52.284;20.890;2023-02-04T00:49:07;19.84;36.50
41142;SHT31;63666;52.284;20.890;2023-02-04T00:51:38;19.83;36.58
41142;SHT31;63666;52.284;20.890;2023-02-04T00:54:13;19.85;36.52
41142;SHT31;63666;52.284;20.890;2023-02-04T00:56:46;19.82;36.52
41142;SHT31;63666;52.284;20.890;2023-02-04T00:59:19;19.82;36.50
41142;SHT31;63666;52.284;20.890;2023-02-04T01:01:51;19.80;36.47
41142;SHT31;63666;52.284;20.890;2023-02-04T01:04:21;19.77;36.40
41142;SHT31;63666;52.284;20.890;2023-02-04T01:06:55;19.74;36.35
41142;SHT31;63666;52.284;20.890;2023-02-04T01:09:25;19.71;36.32
41142;SHT31;63666;52.284;20.890;2023-02-04T01:12:00;19.70;36.28
41142;SHT31;63666;52.284;20.890;2023-02-04T01:14:33;19.70;37.04
41142;SHT31;63666;52.284;20.890;2023-02-04T01:17:06;19.72;38.22
41142;SHT31;63666;52.284;20.890;2023-02-04T01:19:37;19.75;37.94
41142;SHT31;63666;52.284;20.890;2023-02-04T01:22:07;19.73;38.02
41142;SHT31;63666;52.284;20.890;2023-02-04T01:24:37;19.73;38.17
41142;SHT31;63666;52.284;20.890;2023-02-04T01:27:09;19.70;38.37
41142;SHT31;63666;52.284;20.890;2023-02-04T01:29:41;19.71;38.42
41142;SHT31;63666;52.284;20.890;2023-02-04T01:32:11;19.71;38.52
41142;SHT31;63666;52.284;20.890;2023-02-04T01:34:41;19.72;38.46
41142;SHT31;63666;52.284;20.890;2023-02-04T01:37:11;19.71;38.44
41142;SHT31;63666;52.284;20.890;2023-02-04T01:39:44;19.69;38.41
41142;SHT31;63666;52.284;20.890;2023-02-04T01:42:13;19.67;38.45
41142;SHT31;63666;52.284;20.890;2023-02-04T01:44:49;19.65;38.13
41142;SHT31;63666;52.284;20.890;2023-02-04T01:47:23;19.60;37.93
41142;SHT31;63666;52.284;20.890;2023-02-04T01:49:53;19.60;37.87
41142;SHT31;63666;52.284;20.890;2023-02-04T01:52:26;19.62;38.04
41142;SHT31;63666;52.284;20.890;2023-02-04T01:55:03;19.62;38.03
41142;SHT31;63666;52.284;20.890;2023-02-04T01:57:43;19.63;38.03
41142;SHT31;63666;52.284;20.890;2023-02-04T02:00:20;19.63;37.86
41142;SHT31;63666;52.284;20.890;2023-02-04T02:02:53;19.65;37.66
41142;SHT31;63666;52.284;20.890;2023-02-04T02:05:25;19.71;37.50
41142;SHT31;63666;52.284;20.890;2023-02-04T02:07:59;19.76;37.35
41142;SHT31;63666;52.284;20.890;2023-02-04T02:10:33;19.86;37.14
41142;SHT31;63666;52.284;20.890;2023-02-04T02:13:08;19.94;36.98
41142;SHT31;63666;52.284;20.890;2023-02-04T02:15:42;20.00;36.83
41142;SHT31;63666;52.284;20.890;2023-02-04T02:18:12;20.05;36.73
41142;SHT31;63666;52.284;20.890;2023-02-04T02:20:48;20.08;36.66
41142;SHT31;63666;52.284;20.890;2023-02-04T02:23:19;20.11;36.52
41142;SHT31;63666;52.284;20.890;2023-02-04T02:25:55;20.15;36.50
41142;SHT31;63666;52.284;20.890;2023-02-04T02:28:30;20.19;36.43
41142;SHT31;63666;52.284;20.890;2023-02-04T02:31:02;20.23;36.31
41142;SHT31;63666;52.284;20.890;2023-02-04T02:33:41;20.24;36.31
41142;SHT31;63666;52.284;20.890;2023-02-04T02:36:17;20.25;36.27
41142;SHT31;63666;52.284;20.890;2023-02-04T02:38:51;20.25;36.26
41142;SHT31;63666;52.284;20.890;2023-02-04T02:41:27;20.26;36.26
41142;SHT31;63666;52.284;20.890;2023-02-04T02:44:04;20.25;36.27
41142;SHT31;63666;52.284;20.890;2023-02-04T02:46:38;20.24;36.40
41142;SHT31;63666;52.284;20.890;2023-02-04T02:49:09;20.21;36.33
41142;SHT31;63666;52.284;20.890;2023-02-04T02:51:47;20.19;36.34
41142;SHT31;63666;52.284;20.890;2023-02-04T02:54:22;20.20;36.32
41142;SHT31;63666;52.284;20.890;2023-02-04T02:56:59;20.15;36.38
41142;SHT31;63666;52.284;20.890;2023-02-04T02:59:32;20.13;36.39
41142;SHT31;63666;52.284;20.890;2023-02-04T03:02:05;20.11;36.42
41142;SHT31;63666;52.284;20.890;2023-02-04T03:04:43;20.08;36.49
41142;SHT31;63666;52.284;20.890;2023-02-04T03:07:17;20.02;36.48
41142;SHT31;63666;52.284;20.890;2023-02-04T03:09:49;20.01;36.50
41142;SHT31;63666;52.284;20.890;2023-02-04T03:12:22;19.99;36.54
41142;SHT31;63666;52.284;20.890;2023-02-04T03:14:54;19.97;36.58
41142;SHT31;63666;52.284;20.890;2023-02-04T03:17:27;19.96;36.53
41142;SHT31;63666;52.284;20.890;2023-02-04T03:20:01;19.93;36.51
41142;SHT31;63666;52.284;20.890;2023-02-04T03:22:39;19.91;36.52
41142;SHT31;63666;52.284;20.890;2023-02-04T03:25:11;19.90;36.53
41142;SHT31;63666;52.284;20.890;2023-02-04T03:27:44;19.86;36.58
41142;SHT31;63666;52.284;20.890;2023-02-04T03:30:16;19.83;36.58
41142;SHT31;63666;52.284;20.890;2023-02-04T03:32:52;19.82;36.60
41142;SHT31;63666;52.284;20.890;2023-02-04T03:35:27;19.81;36.59
41142;SHT31;63666;52.284;20.890;2023-02-04T03:38:00;19.80;36.60
41142;SHT31;63666;52.284;20.890;2023-02-04T03:40:33;19.76;36.61
41142;SHT31;63666;52.284;20.890;2023-02-04T03:43:04;19.74;36.60
41142;SHT31;63666;52.284;20.890;2023-02-04T03:45:34;19.73;36.60
41142;SHT31;63666;52.284;20.890;2023-02-04T03:48:15;19.73;36.57
41142;SHT31;63666;52.284;20.890;2023-02-04T03:50:48;19.69;36.60
41142;SHT31;63666;52.284;20.890;2023-02-04T03:53:20;19.68;36.60
41142;SHT31;63666;52.284;20.890;2023-02-04T03:55:56;19.68;36.54
41142;SHT31;63666;52.284;20.890;2023-02-04T03:58:31;19.67;36.52
41142;SHT31;63666;52.284;20.890;2023-02-04T04:01:04;19.67;36.49
41142;SHT31;63666;52.284;20.890;2023-02-04T04:03:37;19.66;36.50
41142;SHT31;63666;52.284;20.890;2023-02-04T04:06:15;19.64;36.50
41142;SHT31;63666;52.284;20.890;2023-02-04T04:08:48;19.63;36.50
41142;SHT31;63666;52.284;20.890;2023-02-04T04:11:23;19.62;36.47
41142;SHT31;63666;52.284;20.890;2023-02-04T04:13:56;19.59;36.48
41142;SHT31;63666;52.284;20.890;2023-02-04T04:16:30;19.59;36.45
41142;SHT31;63666;52.284;20.890;2023-02-04T04:19:06;19.58;36.43
41142;SHT31;63666;52.284;20.890;2023-02-04T04:21:39;19.57;36.43
41142;SHT31;63666;52.284;20.890;2023-02-04T04:24:12;19.56;36.43
41142;SHT31;63666;52.284;20.890;2023-02-04T04:26:44;19.56;36.38
41142;SHT31;63666;52.284;20.890;2023-02-04T04:29:21;19.55;36.41
41142;SHT31;63666;52.284;20.890;2023-02-04T04:31:51;19.51;36.42
41142;SHT31;63666;52.284;20.890;2023-02-04T04:34:24;19.50;36.40
41142;SHT31;63666;52.284;20.890;2023-02-04T04:37:00;19.50;36.39
41142;SHT31;63666;52.284;20.890;2023-02-04T04:39:37;19.48;36.39
41142;SHT31;63666;52.284;20.890;2023-02-04T04:42:12;19.49;36.36
41142;SHT31;63666;52.284;20.890;2023-02-04T04:44:45;19.47;36.35
41142;SHT31;63666;52.284;20.890;2023-02-04T04:47:20;19.45;36.38
41142;SHT31;63666;52.284;20.890;2023-02-04T04:49:54;19.44;36.35
41142;SHT31;63666;52.284;20.890;2023-02-04T04:52:26;19.45;36.30
41142;SHT31;63666;52.284;20.890;2023-02-04T04:54:59;19.45;36.29
41142;SHT31;63666;52.284;20.890;2023-02-04T04:57:31;19.44;36.29
41142;SHT31;63666;52.284;20.890;2023-02-04T05:00:13;19.43;36.25
41142;SHT31;63666;52.284;20.890;2023-02-04T05:02:48;19.39;36.31
41142;SHT31;63666;52.284;20.890;2023-02-04T05:05:21;19.40;36.30
41142;SHT31;63666;52.284;20.890;2023-02-04T05:07:53;19.39;36.61
41142;SHT31;63666;52.284;20.890;2023-02-04T05:10:25;19.40;36.94
41142;SHT31;63666;52.284;20.890;2023-02-04T05:12:58;19.39;37.20
41142;SHT31;63666;52.284;20.890;2023-02-04T05:15:30;19.39;37.30
41142;SHT31;63666;52.284;20.890;2023-02-04T05:18:00;19.39;37.39
41142;SHT31;63666;52.284;20.890;2023-02-04T05:20:31;19.38;37.48
41142;SHT31;63666;52.284;20.890;2023-02-04T05:23:04;19.38;37.48
41142;SHT31;63666;52.284;20.890;2023-02-04T05:25:37;19.43;37.46
41142;SHT31;63666;52.284;20.890;2023-02-04T05:28:07;19.48;37.39
41142;SHT31;63666;52.284;20.890;2023-02-04T05:30:40;19.54;37.27
41142;SHT31;63666;52.284;20.890;2023-02-04T05:33:13;19.59;37.16
41142;SHT31;63666;52.284;20.890;2023-02-04T05:35:45;19.64;37.03
41142;SHT31;63666;52.284;20.890;2023-02-04T05:38:18;19.70;37.02
41142;SHT31;63666;52.284;20.890;2023-02-04T05:40:51;19.72;37.00
41142;SHT31;63666;52.284;20.890;2023-02-04T05:43:23;19.78;36.90
41142;SHT31;63666;52.284;20.890;2023-02-04T05:45:56;19.83;36.82
41142;SHT31;63666;52.284;20.890;2023-02-04T05:48:32;19.88;36.68
41142;SHT31;63666;52.284;20.890;2023-02-04T05:51:03;19.91;36.57
41142;SHT31;63666;52.284;20.890;2023-02-04T05:53:40;19.97;36.42
41142;SHT31;63666;52.284;20.890;2023-02-04T05:56:12;20.02;36.38
41142;SHT31;63666;52.284;20.890;2023-02-04T05:58:46;20.04;36.27
41142;SHT31;63666;52.284;20.890;2023-02-04T06:01:19;20.07;36.22
41142;SHT31;63666;52.284;20.890;2023-02-04T06:03:49;20.12;36.10
41142;SHT31;63666;52.284;20.890;2023-02-04T06:06:19;20.16;36.00
41142;SHT31;63666;52.284;20.890;2023-02-04T06:08:52;20.19;35.93
41142;SHT31;63666;52.284;20.890;2023-02-04T06:11:23;20.22;35.88
41142;SHT31;63666;52.284;20.890;2023-02-04T06:13:55;20.24;35.80
41142;SHT31;63666;52.284;20.890;2023-02-04T06:16:30;20.29;35.70
41142;SHT31;63666;52.284;20.890;2023-02-04T06:19:06;20.30;35.64
41142;SHT31;63666;52.284;20.890;2023-02-04T06:21:41;20.33;35.55
41142;SHT31;63666;52.284;20.890;2023-02-04T06:24:19;20.36;35.46
41142;SHT31;63666;52.284;20.890;2023-02-04T06:26:52;20.39;35.41
41142;SHT31;63666;52.284;20.890;2023-02-04T06:29:28;20.41;35.31
41142;SHT31;63666;52.284;20.890;2023-02-04T06:32:04;20.43;35.25
41142;SHT31;63666;52.284;20.890;2023-02-04T06:34:34;20.43;35.21
41142;SHT31;63666;52.284;20.890;2023-02-04T06:37:07;20.45;35.19
41142;SHT31;63666;52.284;20.890;2023-02-04T06:39:43;20.49;35.12
41142;SHT31;63666;52.284;20.890;2023-02-04T06:42:18;20.48;35.16
41142;SHT31;63666;52.284;20.890;2023-02-04T06:44:51;20.51;35.15
41142;SHT31;63666;52.284;20.890;2023-02-04T06:47:24;20.53;35.11
41142;SHT31;63666;52.284;20.890;2023-02-04T06:49:56;20.54;35.11
41142;SHT31;63666;52.284;20.890;2023-02-04T06:52:32;20.56;35.10
41142;SHT31;63666;52.284;20.890;2023-02-04T06:55:11;20.58;35.09
41142;SHT31;63666;52.284;20.890;2023-02-04T06:57:45;20.62;35.09
41142;SHT31;63666;52.284;20.890;2023-02-04T07:00:22;20.64;35.10
41142;SHT31;63666;52.284;20.890;2023-02-04T07:02:57;20.66;35.43
41142;SHT31;63666;52.284;20.890;2023-02-04T07:05:33;20.70;35.38
41142;SHT31;63666;52.284;20.890;2023-02-04T07:08:03;20.71;35.46
41142;SHT31;63666;52.284;20.890;2023-02-04T07:10:34;20.72;35.48
41142;SHT31;63666;52.284;20.890;2023-02-04T07:13:04;20.73;35.50
41142;SHT31;63666;52.284;20.890;2023-02-04T07:15:42;20.74;35.48
41142;SHT31;63666;52.284;20.890;2023-02-04T07:18:17;20.77;35.41
41142;SHT31;63666;52.284;20.890;2023-02-04T07:20:50;20.78;35.37
41142;SHT31;63666;52.284;20.890;2023-02-04T07:23:23;20.79;35.37
41142;SHT31;63666;52.284;20.890;2023-02-04T07:25:54;20.80;35.37
41142;SHT31;63666;52.284;20.890;2023-02-04T07:28:27;20.81;35.32
41142;SHT31;63666;52.284;20.890;2023-02-04T07:31:00;20.83;35.27
41142;SHT31;63666;52.284;20.890;2023-02-04T07:33:33;20.83;35.22
41142;SHT31;63666;52.284;20.890;2023-02-04T07:36:04;20.86;35.19
41142;SHT31;63666;52.284;20.890;2023-02-04T07:38:42;20.84;35.20
41142;SHT31;63666;52.284;20.890;2023-02-04T07:41:19;20.85;35.14
41142;SHT31;63666;52.284;20.890;2023-02-04T07:43:54;20.87;35.14
41142;SHT31;63666;52.284;20.890;2023-02-04T07:46:26;20.88;35.13
41142;SHT31;63666;52.284;20.890;2023-02-04T07:48:58;20.90;35.07
41142;SHT31;63666;52.284;20.890;2023-02-04T07:51:29;20.91;35.05
41142;SHT31;63666;52.284;20.890;2023-02-04T07:54:08;20.90;35.04
41142;SHT31;63666;52.284;20.890;2023-02-04T07:56:43;20.92;35.02
41142;SHT31;63666;52.284;20.890;2023-02-04T07:59:20;20.94;34.98
41142;SHT31;63666;52.284;20.890;2023-02-04T08:01:56;20.94;34.90
41142;SHT31;63666;52.284;20.890;2023-02-04T08:04:31;20.93;34.89
41142;SHT31;63666;52.284;20.890;2023-02-04T08:07:06;20.93;34.88
41142;SHT31;63666;52.284;20.890;2023-02-04T08:09:41;20.92;34.97
41142;SHT31;63666;52.284;20.890;2023-02-04T08:12:19;20.94;35.18
41142;SHT31;63666;52.284;20.890;2023-02-04T08:14:49;20.93;35.40
41142;SHT31;63666;52.284;20.890;2023-02-04T08:17:24;20.95;35.63
41142;SHT31;63666;52.284;20.890;2023-02-04T08:19:59;20.95;35.59
41142;SHT31;63666;52.284;20.890;2023-02-04T08:22:36;20.96;35.47
41142;SHT31;63666;52.284;20.890;2023-02-04T08:25:11;20.95;35.48
41142;SHT31;63666;52.284;20.890;2023-02-04T08:27:48;20.95;35.40
41142;SHT31;63666;52.284;20.890;2023-02-04T08:30:23;20.96;35.39
41142;SHT31;63666;52.284;20.890;2023-02-04T08:33:01;20.97;35.38
41142;SHT31;63666;52.284;20.890;2023-02-04T08:35:33;20.97;35.39
41142;SHT31;63666;52.284;20.890;2023-02-04T08:38:08;20.99;35.31
41142;SHT31;63666;52.284;20.890;2023-02-04T08:40:41;21.00;35.25
41142;SHT31;63666;52.284;20.890;2023-02-04T08:43:10;21.01;35.20
41142;SHT31;63666;52.284;20.890;2023-02-04T08:45:40;21.01;35.19
41142;SHT31;63666;52.284;20.890;2023-02-04T08:48:15;21.02;35.14
41142;SHT31;63666;52.284;20.890;2023-02-04T08:50:45;21.02;35.15
41142;SHT31;63666;52.284;20.890;2023-02-04T08:53:18;21.03;35.10
41142;SHT31;63666;52.284;20.890;2023-02-04T08:55:54;21.03;35.10
41142;SHT31;63666;52.284;20.890;2023-02-04T08:58:32;21.06;35.03
41142;SHT31;63666;52.284;20.890;2023-02-04T09:01:10;21.07;35.01
41142;SHT31;63666;52.284;20.890;2023-02-04T09:03:40;21.06;35.00
41142;SHT31;63666;52.284;20.890;2023-02-04T09:06:15;21.07;35.00
41142;SHT31;63666;52.284;20.890;2023-02-04T09:08:51;21.08;34.99
41142;SHT31;63666;52.284;20.890;2023-02-04T09:11:23;21.08;34.97
41142;SHT31;63666;52.284;20.890;2023-02-04T09:13:59;21.08;34.95
41142;SHT31;63666;52.284;20.890;2023-02-04T09:16:33;21.23;36.75
41142;SHT31;63666;52.284;20.890;2023-02-04T09:19:07;21.38;37.64
41142;SHT31;63666;52.284;20.890;2023-02-04T09:21:38;21.56;38.56
41142;SHT31;63666;52.284;20.890;2023-02-04T09:24:11;21.58;37.96
41142;SHT31;63666;52.284;20.890;2023-02-04T09:26:41;21.60;37.04
41142;SHT31;63666;52.284;20.890;2023-02-04T09:29:13;21.64;37.34
41142;SHT31;63666;52.284;20.890;2023-02-04T09:31:50;21.70;38.13
41142;SHT31;63666;52.284;20.890;2023-02-04T09:34:27;21.74;37.56
41142;SHT31;63666;52.284;20.890;2023-02-04T09:37:10;21.77;37.53
41142;SHT31;63666;52.284;20.890;2023-02-04T09:39:40;21.79;37.53
41142;SHT31;63666;52.284;20.890;2023-02-04T09:42:13;21.83;36.67
41142;SHT31;63666;52.284;20.890;2023-02-04T09:44:49;21.91;35.13
41142;SHT31;63666;52.284;20.890;2023-02-04T09:47:27;21.95;34.35
41142;SHT31;63666;52.284;20.890;2023-02-04T09:50:02;21.96;34.53
41142;SHT31;63666;52.284;20.890;2023-02-04T09:52:38;21.93;34.30
41142;SHT31;63666;52.284;20.890;2023-02-04T09:55:11;21.79;34.12
41142;SHT31;63666;52.284;20.890;2023-02-04T09:57:49;21.64;34.22
41142;SHT31;63666;52.284;20.890;2023-02-04T10:00:29;21.50;34.37
41142;SHT31;63666;52.284;20.890;2023-02-04T10:03:10;21.45;34.33
41142;SHT31;63666;52.284;20.890;2023-02-04T10:05:55;21.40;34.31
41142;SHT31;63666;52.284;20.890;2023-02-04T10:08:30;21.36;34.27
41142;SHT31;63666;52.284;20.890;2023-02-04T10:11:06;21.30;34.22
41142;SHT31;63666;52.284;20.890;2023-02-04T10:13:46;21.21;34.24
41142;SHT31;63666;52.284;20.890;2023-02-04T10:16:23;21.16;34.21
41142;SHT31;63666;52.284;20.890;2023-02-04T10:19:10;21.11;34.14
41142;SHT31;63666;52.284;20.890;2023-02-04T10:21:47;21.07;34.12
41142;SHT31;63666;52.284;20.890;2023-02-04T10:24:20;21.02;34.08
41142;SHT31;63666;52.284;20.890;2023-02-04T10:27:06;20.99;34.07
41142;SHT31;63666;52.284;20.890;2023-02-04T10:29:40;20.95;34.00
41142;SHT31;63666;52.284;20.890;2023-02-04T10:32:29;20.91;34.00
41142;SHT31;63666;52.284;20.890;2023-02-04T10:35:02;20.86;34.00
41142;SHT31;63666;52.284;20.890;2023-02-04T10:37:36;20.83;34.00
41142;SHT31;63666;52.284;20.890;2023-02-04T10:43:06;20.76;33.99
41142;SHT31;63666;52.284;20.890;2023-02-04T10:45:42;20.73;33.98
41142;SHT31;63666;52.284;20.890;2023-02-04T10:48:15;20.70;33.96
41142;SHT31;63666;52.284;20.890;2023-02-04T10:50:49;20.67;33.97
41142;SHT31;63666;52.284;20.890;2023-02-04T10:53:24;20.63;33.98
41142;SHT31;63666;52.284;20.890;2023-02-04T10:56:15;20.57;33.99
41142;SHT31;63666;52.284;20.890;2023-02-04T10:58:49;20.55;33.99
41142;SHT31;63666;52.284;20.890;2023-02-04T11:01:23;20.54;34.97
41142;SHT31;63666;52.284;20.890;2023-02-04T11:03:57;20.71;36.24
41142;SHT31;63666;52.284;20.890;2023-02-04T11:06:30;20.82;36.22
41142;SHT31;63666;52.284;20.890;2023-02-04T11:09:09;20.91;36.02
41142;SHT31;63666;52.284;20.890;2023-02-04T11:11:44;20.99;35.49
41142;SHT31;63666;52.284;20.890;2023-02-04T11:14:22;21.12;35.94
41142;SHT31;63666;52.284;20.890;2023-02-04T11:17:00;21.26;35.89
41142;SHT31;63666;52.284;20.890;2023-02-04T11:19:33;21.32;34.60
41142;SHT31;63666;52.284;20.890;2023-02-04T11:22:07;21.47;35.44
41142;SHT31;63666;52.284;20.890;2023-02-04T11:24:52;21.56;35.15
41142;SHT31;63666;52.284;20.890;2023-02-04T11:27:35;21.67;35.41
41142;SHT31;63666;52.284;20.890;2023-02-04T11:30:06;21.71;32.85
41142;SHT31;63666;52.284;20.890;2023-02-04T11:32:55;21.79;33.07
41142;SHT31;63666;52.284;20.890;2023-02-04T11:35:31;21.86;32.44
41142;SHT31;63666;52.284;20.890;2023-02-04T11:40:55;21.93;32.31
41142;SHT31;63666;52.284;20.890;2023-02-04T11:43:31;21.90;32.32
41142;SHT31;63666;52.284;20.890;2023-02-04T11:46:04;21.88;32.16
41142;SHT31;63666;52.284;20.890;2023-02-04T11:48:43;21.93;32.43
41142;SHT31;63666;52.284;20.890;2023-02-04T11:51:14;21.84;32.12
41142;SHT31;63666;52.284;20.890;2023-02-04T11:53:50;21.74;32.14
41142;SHT31;63666;52.284;20.890;2023-02-04T11:56:21;21.67;32.16
41142;SHT31;63666;52.284;20.890;2023-02-04T11:58:55;21.64;32.15
41142;SHT31;63666;52.284;20.890;2023-02-04T12:01:30;21.60;32.20
41142;SHT31;63666;52.284;20.890;2023-02-04T12:04:04;21.59;32.29
41142;SHT31;63666;52.284;20.890;2023-02-04T12:06:56;21.57;32.48
41142;SHT31;63666;52.284;20.890;2023-02-04T12:09:33;21.57;32.51
41142;SHT31;63666;52.284;20.890;2023-02-04T12:12:03;21.58;32.26
41142;SHT31;63666;52.284;20.890;2023-02-04T12:14:34;21.54;32.27
41142;SHT31;63666;52.284;20.890;2023-02-04T12:17:14;21.48;32.30
41142;SHT31;63666;52.284;20.890;2023-02-04T12:19:43;21.42;32.41
41142;SHT31;63666;52.284;20.890;2023-02-04T12:22:13;21.35;32.50
41142;SHT31;63666;52.284;20.890;2023-02-04T12:24:43;21.43;32.52
41142;SHT31;63666;52.284;20.890;2023-02-04T12:27:12;21.53;32.25
41142;SHT31;63666;52.284;20.890;2023-02-04T12:29:42;21.49;32.23
41142;SHT31;63666;52.284;20.890;2023-02-04T12:32:11;21.26;32.58
41142;SHT31;63666;52.284;20.890;2023-02-04T12:34:41;21.16;32.77
41142;SHT31;63666;52.284;20.890;2023-02-04T12:37:11;21.09;32.89
41142;SHT31;63666;52.284;20.890;2023-02-04T12:39:40;21.06;32.95
41142;SHT31;63666;52.284;20.890;2023-02-04T12:42:10;21.03;33.07
41142;SHT31;63666;52.284;20.890;2023-02-04T12:44:39;21.19;32.89
41142;SHT31;63666;52.284;20.890;2023-02-04T12:47:09;21.25;32.75
41142;SHT31;63666;52.284;20.890;2023-02-04T12:49:38;21.17;32.89
41142;SHT31;63666;52.284;20.890;2023-02-04T12:52:08;20.98;33.34
41142;SHT31;63666;52.284;20.890;2023-02-04T12:54:38;20.88;33.53
41142;SHT31;63666;52.284;20.890;2023-02-04T12:57:10;20.87;33.55
41142;SHT31;63666;52.284;20.890;2023-02-04T12:59:46;20.83;33.55
41142;SHT31;63666;52.284;20.890;2023-02-04T13:02:16;20.80;33.61
41142;SHT31;63666;52.284;20.890;2023-02-04T13:04:46;20.86;33.55
41142;SHT31;63666;52.284;20.890;2023-02-04T13:07:16;20.98;33.24
41142;SHT31;63666;52.284;20.890;2023-02-04T13:09:46;20.97;33.24
41142;SHT31;63666;52.284;20.890;2023-02-04T13:12:21;20.76;33.63
41142;SHT31;63666;52.284;20.890;2023-02-04T13:14:52;20.67;33.83
41142;SHT31;63666;52.284;20.890;2023-02-04T13:17:26;20.66;33.96
41142;SHT31;63666;52.284;20.890;2023-02-04T13:19:55;20.67;33.96
41142;SHT31;63666;52.284;20.890;2023-02-04T13:22:30;20.62;33.98
41142;SHT31;63666;52.284;20.890;2023-02-04T13:25:05;20.68;33.92
41142;SHT31;63666;52.284;20.890;2023-02-04T13:27:39;20.82;33.61
41142;SHT31;63666;52.284;20.890;2023-02-04T13:30:13;20.70;33.68
41142;SHT31;63666;52.284;20.890;2023-02-04T13:32:43;20.65;33.97
41142;SHT31;63666;52.284;20.890;2023-02-04T13:35:17;20.69;33.97
41142;SHT31;63666;52.284;20.890;2023-02-04T13:37:49;20.72;33.92
41142;SHT31;63666;52.284;20.890;2023-02-04T13:40:24;20.77;33.79
41142;SHT31;63666;52.284;20.890;2023-02-04T13:42:55;20.83;33.66
41142;SHT31;63666;52.284;20.890;2023-02-04T13:45:24;20.90;33.53
41142;SHT31;63666;52.284;20.890;2023-02-04T13:47:56;20.96;33.45
41142;SHT31;63666;52.284;20.890;2023-02-04T13:50:26;21.00;33.36
41142;SHT31;63666;52.284;20.890;2023-02-04T13:52:57;21.05;33.30
41142;SHT31;63666;52.284;20.890;2023-02-04T13:55:27;21.10;33.22
41142;SHT31;63666;52.284;20.890;2023-02-04T13:57:59;21.12;33.21
41142;SHT31;63666;52.284;20.890;2023-02-04T14:00:29;21.15;33.23
41142;SHT31;63666;52.284;20.890;2023-02-04T14:03:00;21.20;33.19
41142;SHT31;63666;52.284;20.890;2023-02-04T14:05:33;21.21;33.20
41142;SHT31;63666;52.284;20.890;2023-02-04T14:08:03;21.21;33.19
41142;SHT31;63666;52.284;20.890;2023-02-04T14:10:32;21.23;33.20
41142;SHT31;63666;52.284;20.890;2023-02-04T14:13:05;21.32;33.21
41142;SHT31;63666;52.284;20.890;2023-02-04T14:15:34;21.37;33.24
41142;SHT31;63666;52.284;20.890;2023-02-04T14:18:08;21.37;33.12
41142;SHT31;63666;52.284;20.890;2023-02-04T14:20:38;21.40;33.64
41142;SHT31;63666;52.284;20.890;2023-02-04T14:23:11;21.46;34.02
41142;SHT31;63666;52.284;20.890;2023-02-04T14:25:40;21.52;34.13
41142;SHT31;63666;52.284;20.890;2023-02-04T14:28:12;21.55;34.13
41142;SHT31;63666;52.284;20.890;2023-02-04T14:30:42;21.57;34.22
41142;SHT31;63666;52.284;20.890;2023-02-04T14:33:20;21.63;34.63
41142;SHT31;63666;52.284;20.890;2023-02-04T14:35:53;21.69;34.18
41142;SHT31;63666;52.284;20.890;2023-02-04T14:38:23;21.71;33.86
41142;SHT31;63666;52.284;20.890;2023-02-04T14:40:57;21.76;33.90
41142;SHT31;63666;52.284;20.890;2023-02-04T14:43:27;21.72;33.95
41142;SHT31;63666;52.284;20.890;2023-02-04T14:46:04;21.71;34.30
41142;SHT31;63666;52.284;20.890;2023-02-04T14:48:34;21.73;34.91
41142;SHT31;63666;52.284;20.890;2023-02-04T14:51:07;21.73;34.96
41142;SHT31;63666;52.284;20.890;2023-02-04T14:53:38;21.74;34.87
41142;SHT31;63666;52.284;20.890;2023-02-04T14:56:22;21.78;33.99
41142;SHT31;63666;52.284;20.890;2023-02-04T14:58:51;21.83;32.90
41142;SHT31;63666;52.284;20.890;2023-02-04T15:01:26;21.88;32.95
41142;SHT31;63666;52.284;20.890;2023-02-04T15:04:00;21.86;32.57
41142;SHT31;63666;52.284;20.890;2023-02-04T15:06:30;21.78;32.65
41142;SHT31;63666;52.284;20.890;2023-02-04T15:09:05;21.77;32.77
41142;SHT31;63666;52.284;20.890;2023-02-04T15:11:37;21.75;32.55
41142;SHT31;63666;52.284;20.890;2023-02-04T15:14:10;21.79;33.00
41142;SHT31;63666;52.284;20.890;2023-02-04T15:16:40;21.85;33.80
41142;SHT31;63666;52.284;20.890;2023-02-04T15:19:15;21.89;34.12
41142;SHT31;63666;52.284;20.890;2023-02-04T15:21:47;21.88;34.25
41142;SHT31;63666;52.284;20.890;2023-02-04T15:24:21;21.92;33.71
41142;SHT31;63666;52.284;20.890;2023-02-04T15:26:55;21.94;34.17
41142;SHT31;63666;52.284;20.890;2023-02-04T15:29:28;21.95;34.18
41142;SHT31;63666;52.284;20.890;2023-02-04T15:32:05;21.94;33.83
41142;SHT31;63666;52.284;20.890;2023-02-04T15:34:36;21.94;33.63
41142;SHT31;63666;52.284;20.890;2023-02-04T15:37:07;22.00;33.55
41142;SHT31;63666;52.284;20.890;2023-02-04T15:39:44;22.04;32.86
41142;SHT31;63666;52.284;20.890;2023-02-04T15:42:14;22.03;32.64
41142;SHT31;63666;52.284;20.890;2023-02-04T15:44:47;21.98;32.66
41142;SHT31;63666;52.284;20.890;2023-02-04T15:47:19;21.92;33.20
41142;SHT31;63666;52.284;20.890;2023-02-04T15:49:54;21.91;33.14
41142;SHT31;63666;52.284;20.890;2023-02-04T15:52:26;21.88;32.92
41142;SHT31;63666;52.284;20.890;2023-02-04T15:55:06;21.82;32.89
41142;SHT31;63666;52.284;20.890;2023-02-04T15:57:36;21.75;32.90
41142;SHT31;63666;52.284;20.890;2023-02-04T16:00:14;21.68;32.95